createdAt,value
2019-04-11T00:01:36.136Z,31.13
2019-04-11T00:05:39.521Z,33.27
2019-04-11T00:09:52.309Z,37.07
2019-04-11T00:14:05.326Z,32.73
2019-04-11T00:18:18.652Z,36.20
2019-04-11T00:22:31.024Z,32.67
2019-04-11T00:26:44.443Z,32.60
2019-04-11T00:30:56.779Z,36.03
2019-04-11T00:35:09.261Z,35.13
2019-04-11T00:39:22.090Z,37.50
2019-04-11T00:43:39.037Z,41.33
2019-04-11T00:47:49.102Z,39.50
2019-04-11T00:52:02.650Z,38.37
2019-04-11T00:56:15.774Z,32.57
2019-04-11T01:00:29.175Z,34.60
2019-04-11T01:04:41.909Z,31.20
2019-04-11T01:08:55.716Z,35.27
2019-04-11T01:13:08.996Z,32.13
2019-04-11T01:17:21.552Z,32.33
2019-04-11T01:21:34.813Z,32.33
2019-04-11T01:25:48.498Z,32.50
2019-04-11T01:30:02.084Z,35.83
2019-04-11T01:34:14.694Z,34.07
2019-04-11T01:38:28.330Z,37.13
2019-04-11T01:42:41.779Z,38.00
2019-04-11T01:46:54.765Z,33.80
2019-04-11T01:51:07.551Z,35.07
2019-04-11T01:55:20.675Z,32.00
2019-04-11T01:59:33.285Z,36.63
2019-04-11T02:03:57.838Z,33.53
2019-04-11T02:08:11.263Z,30.57
2019-04-11T02:12:24.207Z,32.23
2019-04-11T02:16:36.917Z,28.97
2019-04-11T02:20:49.752Z,29.43
2019-04-11T02:25:09.064Z,35.70
2019-04-11T02:29:21.919Z,38.83
2019-04-11T02:33:34.814Z,38.07
2019-04-11T02:37:51.767Z,39.23
2019-04-11T02:42:03.861Z,32.53
2019-04-11T02:46:22.952Z,32.80
2019-04-11T02:50:32.147Z,28.23
2019-04-11T02:54:45.212Z,28.23
2019-04-11T02:58:59.951Z,31.53
2019-04-11T03:03:13.006Z,27.27
2019-04-11T03:07:25.624Z,21.33
2019-04-11T03:11:38.670Z,21.70
2019-04-11T03:16:05.377Z,23.20
2019-04-11T03:20:15.399Z,18.60
2019-04-11T03:24:21.781Z,16.37
2019-04-11T03:28:37.761Z,18.70
2019-04-11T03:33:43.491Z,23.23
2019-04-11T03:37:27.287Z,17.43
2019-04-11T03:41:32.050Z,16.80
2019-04-11T03:45:52.484Z,22.27
2019-04-11T03:49:55.684Z,23.97
2019-04-11T03:54:01.543Z,17.77
2019-04-11T03:58:15.340Z,16.97
2019-04-11T04:02:28.544Z,22.33
2019-04-11T04:06:41.512Z,19.20
2019-04-11T04:11:16.817Z,18.67
2019-04-11T04:16:12.170Z,23.37
2019-04-11T04:20:42.059Z,13.67
2019-04-11T04:24:55.725Z,17.20
2019-04-11T04:29:09.252Z,15.80
2019-04-11T04:33:22.955Z,16.27
2019-04-11T04:37:36.553Z,18.17
2019-04-11T04:42:00.554Z,15.37
2019-04-11T04:46:23.733Z,16.50
2019-04-11T04:50:20.066Z,14.07
2019-04-11T04:54:33.419Z,16.97
2019-04-11T04:58:47.118Z,19.80
2019-04-11T05:03:02.169Z,14.00
2019-04-11T05:07:15.203Z,15.40
2019-04-11T05:11:28.365Z,13.27
2019-04-11T05:15:42.165Z,16.07
2019-04-11T05:19:54.815Z,16.47
2019-04-11T05:24:07.700Z,17.87
2019-04-11T05:28:21.360Z,13.17
2019-04-11T05:32:33.935Z,16.30
2019-04-11T05:36:47.255Z,14.97
2019-04-11T05:40:59.557Z,14.57
2019-04-11T05:45:18.240Z,17.67
2019-04-11T05:49:54.891Z,17.17
2019-04-11T05:54:09.184Z,12.10
2019-04-11T05:58:24.064Z,17.37
2019-04-11T06:02:43.696Z,17.23
2019-04-11T06:07:10.447Z,16.43
2019-04-11T06:11:34.969Z,18.37
2019-04-11T06:15:49.917Z,18.83
2019-04-11T06:20:19.904Z,19.07
2019-04-11T06:25:08.618Z,17.57
2019-04-11T06:29:27.975Z,13.37
2019-04-11T06:33:44.966Z,16.97
2019-04-11T06:38:32.449Z,15.27
2019-04-11T06:43:01.426Z,17.50
2019-04-11T06:47:32.688Z,12.90
2019-04-11T06:51:50.473Z,21.53
2019-04-11T06:56:30.738Z,18.90
2019-04-11T07:00:47.534Z,16.70
2019-04-11T07:05:04.533Z,16.10
2019-04-11T07:09:51.301Z,17.60
2019-04-11T07:14:20.552Z,13.17
2019-04-11T07:19:04.847Z,12.80
2019-04-11T07:23:34.904Z,19.60
2019-04-11T07:28:01.492Z,15.47
2019-04-11T07:32:26.092Z,12.63
2019-04-11T07:36:57.662Z,16.47
2019-04-11T07:41:29.734Z,14.53
2019-04-11T07:46:13.033Z,16.87
2019-04-11T07:50:26.209Z,14.17
2019-04-11T07:54:39.025Z,11.70
2019-04-11T07:58:56.410Z,14.70
2019-04-11T08:03:46.969Z,15.00
2019-04-11T08:08:34.426Z,19.80
2019-04-11T08:12:47.996Z,17.47
2019-04-11T08:17:30.807Z,17.47
2019-04-11T08:21:56.811Z,17.27
2019-04-11T08:26:26.240Z,15.33
2019-04-11T08:30:48.921Z,17.30
2019-04-11T08:35:30.370Z,16.57
2019-04-11T08:39:47.173Z,17.67
2019-04-11T08:43:59.921Z,19.40
2019-04-11T08:48:12.889Z,17.63
2019-04-11T08:52:44.535Z,18.50
2019-04-11T08:56:56.904Z,17.37
2019-04-11T09:01:11.558Z,18.80
2019-04-11T09:05:51.828Z,19.37
2019-04-11T09:10:35.933Z,16.97
2019-04-11T09:15:00.487Z,19.13
2019-04-11T09:19:21.240Z,19.77
2019-04-11T09:23:33.988Z,18.93
2019-04-11T09:28:05.027Z,17.77
2019-04-11T09:32:36.135Z,20.70
2019-04-11T09:37:01.545Z,17.63
2019-04-11T09:41:36.510Z,17.83
2019-04-11T09:46:01.937Z,24.30
2019-04-11T09:50:22.625Z,17.17
2019-04-11T09:54:50.499Z,16.27
2019-04-11T09:59:09.306Z,20.17
2019-04-11T10:03:28.134Z,19.17
2019-04-11T10:08:06.394Z,21.80
2019-04-11T10:12:36.481Z,16.67
2019-04-11T10:17:07.123Z,16.57
2019-04-11T10:21:19.850Z,20.47
2019-04-11T10:25:39.338Z,22.33
2019-04-11T10:30:23.966Z,19.03
2019-04-11T10:34:45.873Z,20.80
2019-04-11T10:39:18.156Z,18.90
2019-04-11T10:43:32.010Z,19.90
2019-04-11T10:47:45.124Z,18.97
2019-04-11T10:52:07.796Z,17.33
2019-04-11T10:56:44.951Z,21.60
2019-04-11T11:01:25.590Z,18.33
2019-04-11T11:05:41.620Z,18.60
2019-04-11T11:10:13.705Z,18.90
2019-04-11T11:14:55.301Z,16.43
2019-04-11T11:19:46.585Z,18.97
2019-04-11T11:24:06.363Z,17.43
2019-04-11T11:28:17.894Z,20.33
2019-04-11T11:32:37.757Z,19.13
2019-04-11T11:37:18.845Z,18.83
2019-04-11T11:41:49.013Z,19.67
2019-04-11T11:46:25.427Z,14.63
2019-04-11T11:50:35.031Z,16.17
2019-04-11T11:54:52.011Z,16.07
2019-04-11T11:59:27.389Z,18.23
2019-04-11T12:04:08.659Z,15.80
2019-04-11T12:08:50.892Z,16.13
2019-04-11T12:13:20.904Z,16.03
2019-04-11T12:17:54.043Z,17.67
2019-04-11T12:22:08.329Z,13.97
2019-04-11T12:26:22.005Z,14.63
2019-04-11T12:30:50.392Z,14.43
2019-04-11T12:35:26.288Z,16.07
2019-04-11T12:39:56.662Z,14.63
2019-04-11T12:44:29.527Z,12.07
2019-04-11T12:48:46.412Z,16.73
2019-04-11T12:53:19.937Z,17.20
2019-04-11T12:57:50.320Z,19.47
2019-04-11T13:02:20.143Z,19.73
2019-04-11T13:06:54.370Z,19.00
2019-04-11T13:11:07.536Z,15.87
2019-04-11T13:15:24.017Z,16.67
2019-04-11T13:20:10.738Z,18.47
2019-04-11T13:24:48.135Z,17.43
2019-04-11T13:29:13.289Z,18.87
2019-04-11T13:33:27.576Z,17.57
2019-04-11T13:37:57.543Z,19.20
2019-04-11T13:42:38.111Z,19.20
2019-04-11T13:47:08.446Z,16.63
2019-04-11T13:51:31.861Z,17.97
2019-04-11T13:55:44.798Z,15.27
2019-04-11T14:00:18.974Z,15.80
2019-04-11T14:04:38.378Z,15.63
2019-04-11T14:09:12.411Z,19.03
2019-04-11T14:13:35.270Z,17.90
2019-04-11T14:18:05.077Z,19.57
2019-04-11T14:22:18.529Z,18.50
2019-04-11T14:26:38.268Z,15.20
2019-04-11T14:31:12.614Z,16.63
2019-04-11T14:35:57.754Z,16.03
2019-04-11T14:40:30.181Z,19.20
2019-04-11T14:44:43.014Z,14.63
2019-04-11T14:49:14.362Z,18.30
2019-04-11T14:53:41.876Z,17.00
2019-04-11T14:58:17.697Z,17.80
2019-04-11T15:02:47.725Z,16.57
2019-04-11T15:07:00.457Z,14.07
2019-04-11T15:11:30.374Z,17.40
2019-04-11T15:16:01.835Z,21.40
2019-04-11T15:20:33.805Z,14.33
2019-04-11T15:24:47.344Z,19.27
2019-04-11T15:29:15.331Z,17.37
2019-04-11T15:33:52.220Z,15.53
2019-04-11T15:38:22.556Z,14.93
2019-04-11T15:43:12.655Z,16.60
2019-04-11T15:47:25.193Z,18.50
2019-04-11T15:51:38.786Z,14.03
2019-04-11T15:56:08.436Z,13.80
2019-04-11T16:00:47.673Z,14.33
2019-04-11T16:05:21.498Z,15.13
2019-04-11T16:09:34.403Z,14.53
2019-04-11T16:13:56.977Z,11.93
2019-04-11T16:18:31.407Z,11.07
2019-04-11T16:23:05.255Z,12.13
2019-04-11T16:27:39.553Z,13.47
2019-04-11T16:31:52.596Z,12.93
2019-04-11T16:36:16.105Z,15.37
2019-04-11T16:40:56.736Z,15.00
2019-04-11T16:45:41.203Z,14.17
2019-04-11T16:49:56.826Z,12.97
2019-04-11T16:54:09.771Z,16.10
2019-04-11T16:58:23.078Z,13.77
2019-04-11T17:02:35.703Z,14.80
2019-04-11T17:06:59.893Z,12.93
2019-04-11T17:11:19.025Z,9.03
2019-04-11T17:15:31.581Z,11.40
2019-04-11T17:19:43.992Z,10.67
2019-04-11T17:23:56.883Z,11.37
2019-04-11T17:28:09.336Z,15.20
2019-04-11T17:32:23.636Z,12.37
2019-04-11T17:36:35.693Z,15.97
2019-04-11T17:40:48.560Z,13.83
2019-04-11T17:45:01.213Z,13.00
2019-04-11T17:49:13.557Z,14.10
2019-04-11T17:53:26.472Z,13.00
2019-04-11T17:57:40.001Z,14.07
2019-04-11T18:01:52.453Z,16.93
2019-04-11T18:06:05.595Z,12.27
2019-04-11T18:10:18.204Z,12.83
2019-04-11T18:14:31.648Z,15.80
2019-04-11T18:18:44.051Z,15.13
2019-04-11T18:22:56.475Z,17.10
2019-04-11T18:27:09.264Z,15.37
2019-04-11T18:31:24.799Z,14.67
2019-04-11T18:35:35.743Z,13.90
2019-04-11T18:39:48.576Z,14.07
2019-04-11T18:44:01.259Z,13.63
2019-04-11T18:48:14.100Z,17.40
2019-04-11T18:52:28.796Z,15.23
2019-04-11T18:56:42.002Z,16.00
2019-04-11T19:00:54.361Z,18.50
2019-04-11T19:05:07.452Z,17.87
2019-04-11T19:09:20.373Z,15.50
2019-04-11T19:13:33.097Z,22.10
2019-04-11T19:17:46.757Z,18.03
2019-04-11T19:21:59.980Z,22.30
2019-04-11T19:26:14.478Z,18.80
2019-04-11T19:30:27.084Z,17.87
2019-04-11T19:34:39.619Z,18.43
2019-04-11T19:38:52.001Z,21.40
2019-04-11T19:43:04.994Z,20.60
2019-04-11T19:47:21.443Z,20.80
2019-04-11T19:51:31.916Z,21.57
2019-04-11T19:56:06.255Z,22.07
2019-04-11T20:00:21.365Z,21.40
2019-04-11T20:04:33.005Z,22.13
2019-04-11T20:08:47.708Z,21.10
2019-04-11T20:13:01.886Z,22.23
2019-04-11T20:17:14.284Z,22.23
2019-04-11T20:21:26.770Z,22.40
2019-04-11T20:25:39.119Z,23.83
2019-04-11T20:29:55.162Z,23.97
2019-04-11T20:34:07.230Z,26.17
2019-04-11T20:38:21.143Z,24.57
2019-04-11T20:42:33.452Z,26.47
2019-04-11T20:46:46.281Z,27.50
2019-04-11T20:50:58.836Z,27.20
2019-04-11T20:55:11.888Z,28.23
2019-04-11T20:59:34.074Z,28.40
2019-04-11T21:03:38.342Z,29.07
2019-04-11T21:07:51.328Z,29.93
2019-04-11T21:12:04.949Z,30.10
2019-04-11T21:16:17.899Z,29.73
2019-04-11T21:20:30.624Z,30.00
2019-04-11T21:24:43.075Z,30.70
2019-04-11T21:28:58.742Z,29.63
2019-04-11T21:33:09.237Z,37.03
2019-04-11T21:37:22.577Z,29.30
2019-04-11T21:41:36.281Z,29.87
2019-04-11T21:45:50.094Z,27.57
2019-04-11T21:50:02.948Z,29.10
2019-04-11T21:54:15.689Z,29.93
2019-04-11T21:58:28.612Z,31.47
2019-04-11T22:02:41.056Z,31.63
2019-04-11T22:06:53.380Z,32.73
2019-04-11T22:11:09.915Z,31.13
2019-04-11T22:15:20.230Z,29.73
2019-04-11T22:19:32.628Z,29.67
2019-04-11T22:23:48.887Z,32.70
2019-04-11T22:27:59.753Z,28.20
2019-04-11T22:32:12.068Z,31.33
2019-04-11T22:36:27.850Z,33.80
2019-04-11T22:40:40.409Z,33.27
2019-04-11T22:44:52.796Z,31.67
2019-04-11T22:49:08.615Z,32.23
2019-04-11T22:53:19.635Z,33.90
2019-04-11T22:57:32.466Z,30.53
2019-04-11T23:01:46.971Z,32.53
2019-04-11T23:05:59.273Z,34.30
2019-04-11T23:10:12.920Z,35.50
2019-04-11T23:14:25.238Z,37.53
2019-04-11T23:18:38.784Z,32.83
2019-04-11T23:22:51.253Z,37.73
2019-04-11T23:27:04.745Z,38.60
2019-04-11T23:31:19.742Z,36.47
2019-04-11T23:35:31.728Z,35.73
2019-04-11T23:39:44.127Z,36.20
2019-04-11T23:43:56.513Z,40.63
2019-04-11T23:48:09.501Z,38.23
2019-04-11T23:52:26.403Z,40.33
2019-04-11T23:56:36.417Z,40.80
